createdAt,value
2018-07-25T00:00:42.503Z,76.65
2018-07-25T00:02:35.513Z,76.75
2018-07-25T00:03:35.575Z,76.46
2018-07-25T00:05:28.575Z,76.81
2018-07-25T00:06:28.646Z,76.91
2018-07-25T00:08:21.657Z,76.72
2018-07-25T00:09:21.718Z,76.72
2018-07-25T00:11:14.744Z,76.91
2018-07-25T00:12:14.791Z,76.62
2018-07-25T00:14:07.798Z,76.81
2018-07-25T00:15:07.862Z,76.91
2018-07-25T00:17:00.902Z,76.81
2018-07-25T00:18:00.935Z,76.72
2018-07-25T00:19:53.936Z,76.81
2018-07-25T00:20:54.041Z,77.01
2018-07-25T00:22:47.018Z,77.49
2018-07-25T00:23:47.078Z,77.59
2018-07-25T00:25:40.083Z,77.59
2018-07-25T00:26:40.149Z,77.78
2018-07-25T00:28:33.160Z,77.69
2018-07-25T00:29:33.219Z,78.13
2018-07-25T00:31:26.227Z,77.65
2018-07-25T00:32:26.297Z,78.13
2018-07-25T00:34:19.309Z,78.42
2018-07-25T00:35:19.373Z,78.07
2018-07-25T00:37:12.383Z,78.42
2018-07-25T00:38:12.447Z,78.42
2018-07-25T00:40:05.448Z,78.23
2018-07-25T00:41:05.517Z,78.23
2018-07-25T00:42:58.526Z,78.42
2018-07-25T00:43:58.587Z,78.38
2018-07-25T00:45:51.593Z,78.09
2018-07-25T00:46:51.660Z,78.38
2018-07-25T00:48:44.669Z,77.90
2018-07-25T00:49:44.730Z,78.00
2018-07-25T00:51:37.741Z,78.58
2018-07-25T00:52:37.800Z,77.61
2018-07-25T00:54:30.813Z,77.42
2018-07-25T00:55:30.905Z,77.03
2018-07-25T00:57:23.903Z,77.03
2018-07-25T00:58:23.955Z,76.25
2018-07-25T01:00:16.956Z,75.44
2018-07-25T01:01:17.032Z,75.15
2018-07-25T01:03:10.031Z,74.08
2018-07-25T01:04:10.095Z,73.69
2018-07-25T01:06:03.102Z,72.92
2018-07-25T01:07:03.164Z,72.24
2018-07-25T01:08:56.177Z,71.95
2018-07-25T01:09:56.239Z,71.18
2018-07-25T01:11:49.244Z,70.70
2018-07-25T01:12:49.309Z,70.70
2018-07-25T01:14:42.315Z,70.08
2018-07-25T01:15:42.378Z,68.82
2018-07-25T01:17:35.407Z,68.73
2018-07-25T01:18:35.456Z,68.82
2018-07-25T01:20:28.460Z,68.43
2018-07-25T01:21:28.534Z,67.95
2018-07-25T01:23:21.534Z,67.27
2018-07-25T01:24:21.597Z,67.27
2018-07-25T01:26:14.601Z,66.40
2018-07-25T01:27:14.669Z,66.60
2018-07-25T01:29:07.673Z,66.30
2018-07-25T01:30:07.737Z,65.72
2018-07-25T01:32:00.741Z,65.53
2018-07-25T01:33:00.811Z,65.63
2018-07-25T01:34:53.820Z,65.30
2018-07-25T01:35:53.880Z,65.69
2018-07-25T01:37:46.885Z,65.30
2018-07-25T01:38:46.948Z,65.98
2018-07-25T01:40:39.957Z,65.30
2018-07-25T01:41:40.016Z,65.20
2018-07-25T01:43:33.024Z,65.40
2018-07-25T01:44:33.367Z,65.30
2018-07-25T01:46:40.610Z,65.50
2018-07-25T01:47:26.153Z,63.85
2018-07-25T01:49:19.162Z,63.37
2018-07-25T01:50:19.223Z,62.98
2018-07-25T01:52:12.226Z,60.27
2018-07-25T01:53:12.293Z,59.79
2018-07-25T01:55:05.304Z,61.53
2018-07-25T01:56:05.366Z,61.15
2018-07-25T01:57:58.369Z,61.53
2018-07-25T01:58:58.433Z,61.33
2018-07-25T02:00:51.444Z,60.37
2018-07-25T02:01:51.506Z,60.34
2018-07-25T02:03:44.521Z,60.57
2018-07-25T02:04:44.581Z,60.17
2018-07-25T02:06:37.584Z,59.56
2018-07-25T02:07:37.651Z,59.38
2018-07-25T02:09:30.650Z,59.18
2018-07-25T02:10:30.717Z,59.08
2018-07-25T02:12:23.720Z,59.66
2018-07-25T02:13:23.787Z,59.08
2018-07-25T02:15:16.793Z,57.54
2018-07-25T02:16:17.096Z,57.05
2018-07-25T02:18:09.850Z,57.44
2018-07-25T02:19:09.920Z,56.57
2018-07-25T02:21:02.927Z,56.45
2018-07-25T02:22:02.992Z,56.35
2018-07-25T02:23:56.000Z,55.47
2018-07-25T02:24:56.070Z,55.67
2018-07-25T02:26:49.069Z,55.67
2018-07-25T02:27:49.135Z,55.57
2018-07-25T02:29:42.140Z,55.47
2018-07-25T02:30:42.202Z,55.67
2018-07-25T02:32:35.204Z,55.57
2018-07-25T02:33:35.272Z,56.05
2018-07-25T02:35:28.281Z,56.54
2018-07-25T02:36:28.344Z,56.25
2018-07-25T02:38:21.340Z,56.15
2018-07-25T02:39:21.410Z,55.87
2018-07-25T02:41:14.419Z,55.67
2018-07-25T02:42:14.480Z,56.35
2018-07-25T02:44:07.485Z,54.90
2018-07-25T02:45:07.550Z,56.51
2018-07-25T02:47:00.558Z,56.03
2018-07-25T02:48:00.625Z,55.77
2018-07-25T02:49:53.642Z,55.55
2018-07-25T02:50:53.701Z,55.47
2018-07-25T02:52:46.702Z,54.87
2018-07-25T02:53:46.770Z,55.45
2018-07-25T02:55:39.775Z,54.68
2018-07-25T02:56:39.840Z,54.77
2018-07-25T02:58:32.837Z,53.52
2018-07-25T02:59:32.903Z,54.39
2018-07-25T03:01:25.909Z,53.81
2018-07-25T03:02:25.974Z,54.19
2018-07-25T03:04:18.976Z,54.00
2018-07-25T03:05:19.036Z,54.29
2018-07-25T03:07:12.037Z,54.58
2018-07-25T03:08:12.107Z,54.29
2018-07-25T03:10:05.109Z,54.77
2018-07-25T03:11:05.172Z,55.26
2018-07-25T03:12:58.189Z,55.38
2018-07-25T03:13:58.258Z,55.26
2018-07-25T03:15:51.271Z,55.45
2018-07-25T03:16:51.352Z,55.57
2018-07-25T03:18:44.335Z,55.57
2018-07-25T03:19:44.399Z,55.55
2018-07-25T03:21:37.405Z,54.77
2018-07-25T03:22:37.465Z,55.35
2018-07-25T03:24:30.468Z,54.77
2018-07-25T03:25:30.529Z,54.77
2018-07-25T03:27:23.533Z,54.39
2018-07-25T03:28:23.601Z,54.29
2018-07-25T03:30:16.607Z,54.39
2018-07-25T03:31:16.717Z,54.39
2018-07-25T03:33:09.671Z,53.23
2018-07-25T03:34:09.739Z,53.52
2018-07-25T03:36:02.742Z,52.84
2018-07-25T03:37:02.801Z,52.94
2018-07-25T03:38:55.808Z,52.26
2018-07-25T03:39:55.874Z,52.55
2018-07-25T03:41:48.880Z,51.97
2018-07-25T03:42:48.942Z,51.20
2018-07-25T03:44:41.943Z,51.39
2018-07-25T03:45:42.005Z,51.01
2018-07-25T03:47:35.008Z,51.49
2018-07-25T03:48:35.072Z,50.43
2018-07-25T03:50:28.080Z,50.91
2018-07-25T03:51:28.138Z,50.13
2018-07-25T03:53:21.136Z,48.97
2018-07-25T03:54:21.217Z,48.86
2018-07-25T03:56:14.209Z,48.28
2018-07-25T03:57:14.271Z,48.86
2018-07-25T03:59:07.274Z,48.28
2018-07-25T04:00:07.338Z,48.18
2018-07-25T04:02:00.351Z,48.08
2018-07-25T04:03:00.403Z,47.80
2018-07-25T04:04:53.404Z,47.50
2018-07-25T04:05:53.468Z,47.22
2018-07-25T04:07:46.468Z,46.64
2018-07-25T04:08:46.532Z,46.73
2018-07-25T04:10:39.543Z,46.83
2018-07-25T04:11:39.601Z,46.34
2018-07-25T04:13:32.603Z,45.48
2018-07-25T04:14:32.668Z,45.28
2018-07-25T04:16:25.675Z,46.34
2018-07-25T04:17:25.739Z,45.86
2018-07-25T04:19:18.735Z,45.86
2018-07-25T04:20:18.802Z,46.34
2018-07-25T04:22:11.809Z,46.54
2018-07-25T04:23:11.867Z,46.73
2018-07-25T04:25:05.383Z,46.64
2018-07-25T04:26:05.444Z,46.37
2018-07-25T04:27:58.444Z,45.76
2018-07-25T04:28:58.509Z,46.56
2018-07-25T04:30:51.515Z,46.66
2018-07-25T04:31:51.582Z,45.69
2018-07-25T04:33:44.575Z,46.37
2018-07-25T04:34:44.693Z,46.17
2018-07-25T04:36:37.648Z,46.34
2018-07-25T04:37:37.709Z,46.66
2018-07-25T04:39:30.717Z,46.95
2018-07-25T04:40:30.786Z,46.75
2018-07-25T04:42:23.788Z,47.63
2018-07-25T04:43:23.852Z,46.56
2018-07-25T04:45:16.849Z,47.05
2018-07-25T04:46:16.985Z,47.05
2018-07-25T04:48:09.923Z,46.75
2018-07-25T04:49:09.983Z,46.75
2018-07-25T04:51:03.000Z,43.76
2018-07-25T04:52:03.050Z,44.24
2018-07-25T04:53:56.052Z,45.21
2018-07-25T04:54:56.116Z,45.01
2018-07-25T04:56:49.121Z,45.01
2018-07-25T04:57:49.181Z,45.69
2018-07-25T04:59:42.184Z,46.85
2018-07-25T05:00:42.257Z,47.14
2018-07-25T05:02:35.263Z,47.33
2018-07-25T05:03:35.318Z,47.43
2018-07-25T05:05:28.361Z,47.72
2018-07-25T05:06:28.389Z,46.95
2018-07-25T05:08:21.394Z,48.13
2018-07-25T05:09:21.454Z,48.81
2018-07-25T05:11:14.460Z,48.61
2018-07-25T05:12:14.520Z,48.71
2018-07-25T05:14:07.527Z,49.49
2018-07-25T05:15:07.591Z,49.58
2018-07-25T05:17:00.591Z,49.68
2018-07-25T05:18:00.664Z,48.90
2018-07-25T05:19:53.658Z,49.29
2018-07-25T05:20:53.720Z,48.81
2018-07-25T05:22:46.727Z,48.42
2018-07-25T05:23:46.788Z,49.58
2018-07-25T05:25:39.792Z,50.35
2018-07-25T05:26:39.855Z,50.35
2018-07-25T05:28:32.865Z,51.06
2018-07-25T05:29:32.925Z,50.67
2018-07-25T05:31:25.927Z,49.60
2018-07-25T05:32:25.995Z,51.25
2018-07-25T05:34:19.005Z,51.54
2018-07-25T05:35:19.066Z,51.44
2018-07-25T05:37:12.073Z,51.35
2018-07-25T05:38:12.159Z,51.73
2018-07-25T05:40:05.143Z,52.92
2018-07-25T05:41:05.203Z,52.82
2018-07-25T05:42:58.211Z,52.53
2018-07-25T05:43:58.331Z,52.24
2018-07-25T05:45:51.275Z,53.21
2018-07-25T05:46:51.340Z,53.99
2018-07-25T05:48:44.345Z,53.89
2018-07-25T05:49:44.407Z,54.37
2018-07-25T05:51:37.410Z,54.17
2018-07-25T05:52:37.477Z,55.05
2018-07-25T05:54:30.480Z,55.36
2018-07-25T05:55:30.545Z,55.53
2018-07-25T05:57:23.546Z,56.52
2018-07-25T05:58:23.607Z,56.52
2018-07-25T06:00:16.623Z,57.59
2018-07-25T06:01:16.684Z,57.59
2018-07-25T06:03:09.752Z,56.62
2018-07-25T06:04:09.753Z,56.43
2018-07-25T06:06:02.816Z,58.56
2018-07-25T06:07:02.824Z,58.30
2018-07-25T06:08:55.831Z,58.20
2018-07-25T06:09:55.892Z,59.75
2018-07-25T06:11:48.896Z,60.04
2018-07-25T06:12:48.979Z,61.43
2018-07-25T06:14:41.969Z,63.75
2018-07-25T06:15:42.031Z,64.07
2018-07-25T06:17:35.066Z,65.82
2018-07-25T06:18:35.098Z,66.14
2018-07-25T06:20:28.157Z,67.73
2018-07-25T06:21:28.166Z,69.93
2018-07-25T06:23:21.171Z,71.17
2018-07-25T06:24:21.241Z,70.76
2018-07-25T06:26:14.241Z,66.89
2018-07-25T06:27:14.306Z,64.90
2018-07-25T06:29:07.310Z,62.03
2018-07-25T06:30:07.381Z,61.18
2018-07-25T06:32:00.391Z,58.30
2018-07-25T06:33:00.453Z,56.76
2018-07-25T06:34:53.533Z,55.88
2018-07-25T06:35:53.529Z,54.73
2018-07-25T06:37:46.537Z,54.36
2018-07-25T06:38:46.608Z,53.50
2018-07-25T06:40:39.627Z,51.50
2018-07-25T06:41:39.693Z,50.12
2018-07-25T06:43:32.712Z,49.73
2018-07-25T06:44:32.774Z,49.70
2018-07-25T06:46:25.791Z,49.63
2018-07-25T06:47:25.856Z,49.35
2018-07-25T06:49:18.869Z,47.98
2018-07-25T06:50:18.944Z,48.00
2018-07-25T06:52:11.965Z,51.34
2018-07-25T06:53:12.034Z,49.63
2018-07-25T06:55:05.053Z,47.53
2018-07-25T06:56:05.120Z,46.28
2018-07-25T06:57:58.140Z,45.71
2018-07-25T06:58:58.210Z,44.25
2018-07-25T07:00:51.233Z,43.76
2018-07-25T07:01:51.300Z,43.74
2018-07-25T07:03:44.316Z,43.27
2018-07-25T07:04:44.394Z,43.62
2018-07-25T07:06:37.430Z,43.27
2018-07-25T07:07:37.534Z,43.34
2018-07-25T07:09:30.510Z,42.79
2018-07-25T07:10:30.586Z,42.20
2018-07-25T07:12:23.608Z,41.65
2018-07-25T07:13:23.678Z,41.17
2018-07-25T07:15:16.716Z,40.58
2018-07-25T07:16:16.769Z,39.32
2018-07-25T07:18:09.808Z,38.55
2018-07-25T07:19:09.882Z,37.87
2018-07-25T07:21:02.904Z,38.27
2018-07-25T07:22:02.974Z,37.89
2018-07-25T07:23:56.041Z,36.92
2018-07-25T07:24:56.077Z,36.33
2018-07-25T07:26:49.102Z,37.24
2018-07-25T07:27:49.174Z,36.84
2018-07-25T07:29:42.197Z,35.97
2018-07-25T07:30:42.310Z,37.02
2018-07-25T07:32:35.303Z,36.35
2018-07-25T07:33:35.375Z,36.54
2018-07-25T07:35:28.447Z,36.24
2018-07-25T07:36:28.474Z,36.08
2018-07-25T07:38:21.504Z,36.16
2018-07-25T07:39:21.574Z,35.60
2018-07-25T07:41:14.600Z,34.13
2018-07-25T07:42:14.672Z,33.75
2018-07-25T07:44:07.712Z,34.03
2018-07-25T07:45:07.777Z,33.95
2018-07-25T07:47:00.806Z,33.95
2018-07-25T07:48:00.881Z,33.95
2018-07-25T07:49:53.898Z,33.94
2018-07-25T07:50:53.979Z,33.95
2018-07-25T07:52:47.003Z,33.57
2018-07-25T07:53:47.078Z,33.39
2018-07-25T07:55:40.099Z,32.11
2018-07-25T07:56:40.184Z,31.71
2018-07-25T07:58:33.217Z,32.41
2018-07-25T07:59:33.283Z,31.91
2018-07-25T08:01:26.309Z,31.81
2018-07-25T08:02:26.387Z,31.41
2018-07-25T08:04:19.420Z,31.63
2018-07-25T08:05:19.496Z,31.41
2018-07-25T08:07:12.525Z,31.21
2018-07-25T08:08:12.598Z,30.85
2018-07-25T08:10:05.627Z,30.46
2018-07-25T08:11:05.702Z,29.88
2018-07-25T08:12:58.736Z,29.44
2018-07-25T08:13:58.811Z,27.92
2018-07-25T08:15:51.835Z,28.41
2018-07-25T08:16:51.918Z,29.31
2018-07-25T08:18:44.954Z,28.81
2018-07-25T08:19:45.042Z,28.81
2018-07-25T08:21:38.095Z,28.71
2018-07-25T08:22:38.135Z,28.80
2018-07-25T08:24:31.171Z,28.40
2018-07-25T08:25:31.244Z,28.90
2018-07-25T08:27:24.271Z,28.64
2018-07-25T08:28:24.352Z,28.94
2018-07-25T08:30:17.387Z,28.78
2018-07-25T08:31:17.464Z,28.50
2018-07-25T08:33:10.496Z,28.02
2018-07-25T08:34:10.572Z,27.81
2018-07-25T08:36:03.600Z,28.41
2018-07-25T08:37:03.685Z,28.11
2018-07-25T08:38:56.720Z,28.22
2018-07-25T08:39:56.792Z,28.61
2018-07-25T08:41:49.822Z,28.33
2018-07-25T08:42:49.907Z,28.02
2018-07-25T08:44:42.945Z,28.53
2018-07-25T08:45:43.019Z,28.23
2018-07-25T08:47:36.051Z,28.41
2018-07-25T08:48:36.131Z,28.91
2018-07-25T08:50:29.167Z,28.11
2018-07-25T08:51:29.242Z,28.31
2018-07-25T08:53:22.302Z,28.83
2018-07-25T08:54:22.362Z,28.55
2018-07-25T08:56:15.390Z,27.37
2018-07-25T08:57:15.482Z,27.06
2018-07-25T08:59:08.510Z,27.57
2018-07-25T09:00:08.588Z,27.15
2018-07-25T09:02:01.619Z,27.36
2018-07-25T09:03:01.704Z,26.57
2018-07-25T09:04:54.739Z,27.00
2018-07-25T09:05:54.817Z,25.91
2018-07-25T09:07:49.127Z,26.10
2018-07-25T09:08:49.690Z,25.72
2018-07-25T09:10:42.019Z,25.01
2018-07-25T09:11:42.254Z,25.51
2018-07-25T09:13:35.139Z,25.31
2018-07-25T09:14:35.214Z,26.01
2018-07-25T09:16:28.244Z,24.69
2018-07-25T09:17:28.336Z,24.58
2018-07-25T09:19:21.402Z,24.97
2018-07-25T09:20:21.468Z,25.67
2018-07-25T09:22:14.532Z,25.18
2018-07-25T09:23:14.584Z,25.90
2018-07-25T09:25:08.221Z,24.42
2018-07-25T09:26:08.230Z,24.73
2018-07-25T09:28:01.282Z,24.84
2018-07-25T09:29:01.365Z,25.04
2018-07-25T09:30:54.428Z,24.34
2018-07-25T09:31:54.507Z,24.14
2018-07-25T09:33:47.584Z,25.31
2018-07-25T09:34:47.623Z,26.46
2018-07-25T09:36:40.679Z,28.36
2018-07-25T09:37:40.759Z,29.20
2018-07-25T09:39:34.136Z,31.41
2018-07-25T09:40:33.985Z,32.98
2018-07-25T09:42:26.968Z,33.42
2018-07-25T09:43:27.049Z,34.50
2018-07-25T09:45:20.080Z,34.28
2018-07-25T09:46:20.155Z,34.48
2018-07-25T09:48:13.185Z,36.12
2018-07-25T09:49:13.266Z,36.02
2018-07-25T09:51:06.295Z,36.70
2018-07-25T09:52:06.366Z,36.50
2018-07-25T09:53:59.390Z,37.09
2018-07-25T09:54:59.467Z,36.98
2018-07-25T09:56:52.492Z,37.27
2018-07-25T09:57:52.564Z,37.65
2018-07-25T09:59:45.609Z,38.04
2018-07-25T10:00:45.670Z,37.85
2018-07-25T10:02:38.691Z,37.27
2018-07-25T10:03:38.765Z,36.86
2018-07-25T10:05:31.833Z,37.93
2018-07-25T10:06:31.855Z,38.32
2018-07-25T10:08:24.870Z,37.83
2018-07-25T10:09:24.947Z,38.02
2018-07-25T10:11:17.985Z,39.11
2018-07-25T10:12:18.044Z,38.32
2018-07-25T10:14:11.080Z,39.01
2018-07-25T10:15:11.248Z,38.42
2018-07-25T10:17:04.695Z,38.30
2018-07-25T10:18:04.764Z,38.79
2018-07-25T10:19:57.777Z,37.81
2018-07-25T10:20:57.856Z,38.01
2018-07-25T10:22:50.878Z,37.91
2018-07-25T10:23:50.980Z,37.73
2018-07-25T10:25:43.972Z,38.51
2018-07-25T10:26:44.039Z,39.01
2018-07-25T10:28:37.054Z,38.54
2018-07-25T10:29:37.129Z,38.83
2018-07-25T10:31:30.153Z,38.42
2018-07-25T10:32:30.222Z,39.09
2018-07-25T10:34:23.744Z,38.60
2018-07-25T10:35:23.822Z,38.97
2018-07-25T10:37:16.844Z,38.78
2018-07-25T10:38:16.912Z,39.68
2018-07-25T10:40:09.930Z,39.78
2018-07-25T10:41:10.007Z,39.28
2018-07-25T10:43:03.031Z,38.89
2018-07-25T10:44:03.100Z,38.48
2018-07-25T10:45:56.197Z,38.38
2018-07-25T10:46:56.185Z,38.09
2018-07-25T10:48:49.278Z,39.15
2018-07-25T10:49:49.278Z,38.48
2018-07-25T10:51:42.299Z,39.17
2018-07-25T10:52:42.366Z,39.37
2018-07-25T10:54:35.379Z,39.26
2018-07-25T10:55:35.456Z,38.87
2018-07-25T10:57:28.477Z,39.17
2018-07-25T10:58:28.551Z,37.59
2018-07-25T11:00:21.560Z,38.78
2018-07-25T11:01:21.635Z,39.15
2018-07-25T11:03:14.656Z,38.95
2018-07-25T11:04:14.725Z,39.74
2018-07-25T11:06:07.741Z,40.11
2018-07-25T11:07:07.819Z,39.03
2018-07-25T11:09:00.835Z,39.84
2018-07-25T11:10:00.902Z,40.53
2018-07-25T11:11:53.916Z,39.84
2018-07-25T11:12:53.991Z,40.11
2018-07-25T11:14:47.014Z,40.41
2018-07-25T11:15:47.081Z,39.74
2018-07-25T11:17:40.107Z,41.49
2018-07-25T11:18:40.174Z,39.34
2018-07-25T11:20:33.190Z,39.15
2018-07-25T11:21:33.259Z,39.05
2018-07-25T11:23:26.287Z,38.07
2018-07-25T11:24:26.348Z,37.57
2018-07-25T11:26:19.375Z,38.46
2018-07-25T11:27:19.479Z,38.85
2018-07-25T11:29:12.476Z,39.07
2018-07-25T11:30:12.540Z,38.76
2018-07-25T11:32:05.561Z,39.15
2018-07-25T11:33:05.642Z,38.44
2018-07-25T11:34:58.664Z,39.05
2018-07-25T11:35:58.731Z,39.13
2018-07-25T11:37:51.753Z,39.13
2018-07-25T11:38:51.827Z,39.32
2018-07-25T11:40:44.850Z,38.05
2018-07-25T11:41:44.925Z,38.54
2018-07-25T11:43:50.638Z,38.76
2018-07-25T11:44:50.631Z,38.56
2018-07-25T11:46:43.649Z,37.97
2018-07-25T11:47:43.725Z,38.26
2018-07-25T11:49:36.751Z,40.33
2018-07-25T11:50:36.819Z,38.78
2018-07-25T11:52:29.840Z,38.95
2018-07-25T11:53:29.912Z,38.78
2018-07-25T11:55:23.055Z,38.46
2018-07-25T11:56:23.011Z,38.76
2018-07-25T11:58:16.033Z,38.17
2018-07-25T11:59:16.106Z,38.28
2018-07-25T12:01:09.226Z,37.49
2018-07-25T12:02:09.214Z,38.58
2018-07-25T12:04:02.216Z,37.40
2018-07-25T12:05:02.285Z,40.76
2018-07-25T12:06:55.296Z,37.81
2018-07-25T12:07:55.373Z,37.91
2018-07-25T12:09:48.397Z,37.12
2018-07-25T12:10:48.466Z,37.22
2018-07-25T12:12:41.488Z,36.53
2018-07-25T12:13:41.563Z,36.43
2018-07-25T12:15:34.593Z,36.51
2018-07-25T12:16:34.660Z,36.11
2018-07-25T12:18:27.677Z,36.02
2018-07-25T12:19:27.750Z,36.33
2018-07-25T12:21:20.818Z,36.53
2018-07-25T12:22:20.837Z,35.05
2018-07-25T12:24:13.860Z,35.35
2018-07-25T12:25:13.940Z,36.13
2018-07-25T12:27:06.958Z,37.81
2018-07-25T12:28:07.025Z,37.91
2018-07-25T12:30:00.047Z,35.96
2018-07-25T12:31:00.114Z,36.04
2018-07-25T12:32:53.137Z,37.14
2018-07-25T12:33:53.210Z,38.91
2018-07-25T12:35:46.240Z,36.57
2018-07-25T12:36:46.348Z,36.05
2018-07-25T12:38:39.327Z,34.99
2018-07-25T12:39:39.403Z,34.20
2018-07-25T12:41:32.458Z,35.58
2018-07-25T12:42:32.500Z,34.00
2018-07-25T12:44:26.028Z,33.80
2018-07-25T12:45:26.099Z,34.20
2018-07-25T12:47:19.119Z,34.22
2018-07-25T12:48:19.202Z,33.61
2018-07-25T12:50:12.211Z,33.91
2018-07-25T12:51:12.285Z,33.72
2018-07-25T12:53:05.317Z,33.41
2018-07-25T12:54:05.567Z,33.70
2018-07-25T12:55:58.405Z,33.61
2018-07-25T12:56:58.475Z,33.69
2018-07-25T12:58:51.503Z,33.89
2018-07-25T12:59:51.576Z,33.10
2018-07-25T13:01:44.603Z,33.67
2018-07-25T13:02:44.674Z,33.87
2018-07-25T13:04:37.690Z,34.27
2018-07-25T13:05:37.765Z,33.75
2018-07-25T13:07:30.787Z,34.13
2018-07-25T13:08:30.856Z,33.54
2018-07-25T13:10:23.887Z,33.74
2018-07-25T13:11:23.952Z,33.74
2018-07-25T13:13:16.974Z,33.84
2018-07-25T13:14:17.042Z,34.23
2018-07-25T13:16:10.056Z,34.33
2018-07-25T13:17:10.131Z,34.53
2018-07-25T13:19:03.154Z,33.94
2018-07-25T13:20:03.223Z,33.94
2018-07-25T13:21:56.250Z,36.10
2018-07-25T13:22:56.328Z,35.90
2018-07-25T13:24:49.334Z,35.11
2018-07-25T13:25:49.408Z,35.31
2018-07-25T13:27:42.436Z,36.88
2018-07-25T13:28:42.573Z,36.41
2018-07-25T13:30:35.526Z,35.03
2018-07-25T13:31:35.602Z,34.25
2018-07-25T13:33:28.630Z,33.46
2018-07-25T13:34:28.692Z,35.54
2018-07-25T13:36:21.710Z,34.27
2018-07-25T13:37:21.786Z,34.27
2018-07-25T13:39:14.807Z,33.97
2018-07-25T13:40:14.870Z,34.36
2018-07-25T13:42:07.888Z,33.79
2018-07-25T13:43:07.963Z,34.17
2018-07-25T13:45:00.981Z,34.18
2018-07-25T13:46:01.084Z,34.38
2018-07-25T13:47:54.067Z,33.39
2018-07-25T13:48:54.135Z,33.79
2018-07-25T13:50:47.148Z,33.70
2018-07-25T13:51:47.231Z,33.59
2018-07-25T13:53:40.274Z,33.79
2018-07-25T13:54:40.346Z,36.05
2018-07-25T13:56:33.356Z,34.67
2018-07-25T13:57:33.458Z,35.27
2018-07-25T13:59:26.447Z,35.68
2018-07-25T14:00:26.518Z,35.68
2018-07-25T14:02:19.527Z,35.36
2018-07-25T14:03:19.600Z,36.05
2018-07-25T14:05:12.624Z,36.63
2018-07-25T14:06:12.688Z,36.63
2018-07-25T14:08:05.704Z,36.33
2018-07-25T14:09:05.783Z,36.82
2018-07-25T14:10:58.797Z,36.92
2018-07-25T14:11:58.879Z,36.51
2018-07-25T14:13:51.887Z,36.11
2018-07-25T14:14:51.952Z,36.32
2018-07-25T14:16:44.969Z,36.92
2018-07-25T14:17:45.041Z,35.82
2018-07-25T14:19:38.062Z,36.11
2018-07-25T14:20:38.129Z,36.02
2018-07-25T14:22:31.142Z,36.32
2018-07-25T14:23:31.251Z,36.22
2018-07-25T14:25:24.246Z,36.30
2018-07-25T14:26:24.300Z,36.69
2018-07-25T14:28:17.313Z,37.16
2018-07-25T14:29:17.393Z,36.97
2018-07-25T14:31:10.409Z,36.57
2018-07-25T14:32:10.477Z,36.97
2018-07-25T14:34:03.497Z,37.07
2018-07-25T14:35:03.569Z,37.26
2018-07-25T14:36:56.594Z,37.65
2018-07-25T14:37:56.662Z,37.95
2018-07-25T14:39:49.770Z,38.52
2018-07-25T14:40:49.744Z,39.01
2018-07-25T14:42:42.756Z,39.21
2018-07-25T14:43:42.829Z,41.17
2018-07-25T14:45:35.844Z,46.66
2018-07-25T14:46:35.913Z,49.48
2018-07-25T14:48:28.928Z,57.60
2018-07-25T14:49:29.007Z,60.49
2018-07-25T14:51:22.051Z,54.36
2018-07-25T14:52:22.109Z,52.47
2018-07-25T14:54:15.114Z,52.83
2018-07-25T14:55:15.168Z,55.67
2018-07-25T14:57:08.187Z,51.93
2018-07-25T14:58:08.260Z,55.26
2018-07-25T15:00:01.283Z,67.25
2018-07-25T15:01:01.339Z,65.10
2018-07-25T15:02:54.380Z,69.50
2018-07-25T15:03:54.425Z,68.52
2018-07-25T15:05:47.441Z,72.98
2018-07-25T15:06:47.505Z,71.81
2018-07-25T15:08:40.520Z,71.88
2018-07-25T15:09:40.611Z,73.93
2018-07-25T15:11:33.608Z,73.93
2018-07-25T15:12:33.792Z,74.90
2018-07-25T15:14:26.689Z,74.80
2018-07-25T15:15:26.761Z,74.61
2018-07-25T15:17:19.781Z,74.61
2018-07-25T15:18:19.857Z,74.57
2018-07-25T15:20:12.854Z,74.67
2018-07-25T15:21:12.933Z,75.60
2018-07-25T15:23:05.977Z,74.63
2018-07-25T15:24:06.020Z,75.12
2018-07-25T15:25:59.038Z,72.29
2018-07-25T15:26:59.105Z,74.40
2018-07-25T15:28:52.117Z,75.08
2018-07-25T15:29:52.188Z,74.98
2018-07-25T15:31:45.216Z,74.69
2018-07-25T15:32:45.300Z,75.27
2018-07-25T15:34:38.290Z,76.12
2018-07-25T15:35:38.381Z,75.73
2018-07-25T15:37:31.411Z,76.51
2018-07-25T15:38:31.446Z,76.31
2018-07-25T15:40:24.457Z,75.82
2018-07-25T15:41:24.529Z,77.29
2018-07-25T15:43:17.552Z,76.21
2018-07-25T15:44:17.619Z,75.73
2018-07-25T15:46:10.630Z,75.82
2018-07-25T15:47:10.701Z,76.02
2018-07-25T15:49:03.719Z,76.41
2018-07-25T15:50:03.785Z,75.92
2018-07-25T15:51:56.810Z,76.02
2018-07-25T15:52:56.889Z,77.19
2018-07-25T15:54:50.379Z,76.80
2018-07-25T15:55:50.451Z,77.15
2018-07-25T15:57:43.465Z,76.08
2018-07-25T15:58:43.535Z,77.06
2018-07-25T16:00:36.569Z,76.86
2018-07-25T16:01:36.681Z,75.98
2018-07-25T16:03:29.655Z,74.91
2018-07-25T16:04:29.721Z,74.72
2018-07-25T16:06:22.738Z,75.63
2018-07-25T16:07:22.810Z,74.56
2018-07-25T16:09:15.826Z,74.07
2018-07-25T16:10:15.893Z,73.97
2018-07-25T16:12:08.901Z,74.46
2018-07-25T16:13:08.971Z,73.97
2018-07-25T16:15:01.989Z,74.95
2018-07-25T16:16:02.054Z,76.21
2018-07-25T16:17:55.085Z,76.96
2018-07-25T16:18:55.136Z,76.47
2018-07-25T16:20:48.148Z,76.82
2018-07-25T16:21:48.217Z,77.21
2018-07-25T16:23:41.231Z,77.50
2018-07-25T16:24:41.296Z,77.21
2018-07-25T16:26:34.310Z,77.21
2018-07-25T16:27:34.381Z,77.01
2018-07-25T16:29:27.394Z,76.57
2018-07-25T16:30:27.459Z,76.96
2018-07-25T16:32:20.468Z,77.50
2018-07-25T16:33:20.536Z,76.96
2018-07-25T16:35:13.549Z,77.40
2018-07-25T16:36:13.614Z,77.50
2018-07-25T16:38:06.623Z,77.25
2018-07-25T16:39:06.697Z,77.83
2018-07-25T16:40:59.717Z,77.06
2018-07-25T16:41:59.790Z,77.54
2018-07-25T16:43:52.791Z,76.04
2018-07-25T16:44:52.857Z,76.82
2018-07-25T16:46:45.897Z,77.11
2018-07-25T16:47:45.942Z,76.86
2018-07-25T16:49:38.958Z,77.11
2018-07-25T16:50:39.025Z,77.11
2018-07-25T16:52:32.030Z,76.73
2018-07-25T16:53:32.097Z,76.14
2018-07-25T16:55:25.637Z,75.95
2018-07-25T16:56:25.720Z,75.85
2018-07-25T16:58:18.741Z,75.36
2018-07-25T16:59:18.767Z,74.74
2018-07-25T17:01:11.903Z,74.10
2018-07-25T17:02:11.850Z,73.22
2018-07-25T17:04:04.863Z,72.34
2018-07-25T17:05:04.938Z,71.56
2018-07-25T17:06:57.969Z,72.02
2018-07-25T17:07:58.045Z,72.54
2018-07-25T17:09:51.111Z,71.76
2018-07-25T17:10:51.097Z,69.20
2018-07-25T17:12:44.113Z,70.40
2018-07-25T17:13:44.180Z,69.32
2018-07-25T17:15:37.247Z,67.18
2018-07-25T17:16:37.281Z,64.52
2018-07-25T17:18:30.282Z,65.23
2018-07-25T17:19:30.351Z,65.43
2018-07-25T17:21:23.870Z,65.33
2018-07-25T17:22:23.981Z,66.79
2018-07-25T17:24:16.940Z,65.88
2018-07-25T17:25:17.007Z,65.33
2018-07-25T17:27:10.020Z,69.00
2018-07-25T17:28:10.082Z,69.29
2018-07-25T17:30:03.090Z,71.14
2018-07-25T17:31:03.158Z,70.75
2018-07-25T17:32:56.171Z,72.99
2018-07-25T17:33:56.233Z,74.84
2018-07-25T17:35:49.242Z,73.38
2018-07-25T17:36:49.308Z,74.16
2018-07-25T17:38:42.317Z,71.43
2018-07-25T17:39:42.383Z,72.02
2018-07-25T17:41:35.396Z,73.86
2018-07-25T17:42:35.460Z,73.54
2018-07-25T17:44:28.469Z,68.71
2018-07-25T17:45:28.542Z,67.83
2018-07-25T17:47:21.556Z,67.83
2018-07-25T17:48:21.619Z,65.88
2018-07-25T17:50:14.622Z,64.42
2018-07-25T17:51:14.695Z,65.40
2018-07-25T17:53:07.704Z,65.79
2018-07-25T17:54:07.766Z,65.30
2018-07-25T17:56:00.779Z,65.79
2018-07-25T17:57:00.912Z,65.40
2018-07-25T17:58:53.847Z,66.37
2018-07-25T17:59:53.918Z,66.86
2018-07-25T18:01:46.930Z,67.41
2018-07-25T18:02:46.992Z,68.02
2018-07-25T18:04:39.998Z,65.79
2018-07-25T18:05:40.069Z,66.08
2018-07-25T18:07:33.078Z,67.05
2018-07-25T18:08:33.141Z,67.80
2018-07-25T18:10:26.145Z,68.57
2018-07-25T18:11:26.216Z,68.57
2018-07-25T18:13:19.232Z,68.96
2018-07-25T18:14:19.289Z,70.04
2018-07-25T18:16:12.298Z,70.52
2018-07-25T18:17:12.395Z,71.11
2018-07-25T18:19:05.366Z,71.30
2018-07-25T18:20:05.436Z,71.50
2018-07-25T18:21:58.446Z,72.27
2018-07-25T18:22:58.571Z,71.69
2018-07-25T18:24:51.517Z,72.14
2018-07-25T18:25:51.585Z,71.94
2018-07-25T18:27:44.591Z,72.96
2018-07-25T18:28:44.655Z,73.02
2018-07-25T18:30:37.659Z,73.02
2018-07-25T18:31:37.731Z,73.02
2018-07-25T18:33:30.753Z,73.02
2018-07-25T18:34:30.815Z,72.53